Time;durP1;ratioP1;P1;durP2;ratioP2;P2;SDS_P1;SDS_P2;PMS_P1;PMS_P2;Temp;Humidity;BMP_temperature;BMP_pressure;BME280_temperature;BME280_humidity;BME280_pressure;Samples;Min_cycle;Max_cycle;Signal;HPM_P1;HPM_P2
2023/04/21 00:01:12;;;;;;;17.23;9.27;;;;;;;10.46;85.19;94768.25;5033220;28;20237;-76
2023/04/21 00:03:38;;;;;;;16.80;9.33;;;;;;;10.33;85.93;94761.22;5004212;28;20233;-75
2023/04/21 00:06:06;;;;;;;17.77;8.60;;;;;;;10.20;86.61;94761.19;4990755;28;20249;-77
2023/04/21 00:08:32;;;;;;;15.47;8.70;;;;;;;10.23;86.16;94757.38;5038510;28;20784;-75
2023/04/21 00:10:57;;;;;;;15.37;8.70;;;;;;;10.10;87.32;94752.94;5026080;28;20309;-76
2023/04/21 00:13:23;;;;;;;14.73;8.67;;;;;;;9.96;87.49;94759.13;5006895;28;21007;-76
2023/04/21 00:15:49;;;;;;;14.10;8.43;;;;;;;9.99;87.77;94756.94;5008500;28;20618;-76
2023/04/21 00:18:15;;;;;;;18.90;9.20;;;;;;;9.87;88.83;94760.31;4999882;28;20221;-77
2023/04/21 00:20:41;;;;;;;16.83;9.10;;;;;;;9.72;89.30;94762.34;4996879;28;20303;-78
2023/04/21 00:23:09;;;;;;;15.13;9.10;;;;;;;9.82;89.26;94757.50;5023946;28;20238;-76
2023/04/21 00:25:35;;;;;;;15.93;9.40;;;;;;;9.82;89.35;94755.69;4987671;28;20223;-77
2023/04/21 00:28:00;;;;;;;16.17;9.20;;;;;;;9.90;88.71;94757.31;5001448;28;20241;-76
2023/04/21 00:30:26;;;;;;;16.80;9.00;;;;;;;9.82;88.84;94755.69;5026685;28;20233;-77
2023/04/21 00:32:51;;;;;;;15.17;8.50;;;;;;;9.83;88.06;94757.31;5036739;28;20226;-77
2023/04/21 00:35:16;;;;;;;15.60;9.27;;;;;;;9.84;87.91;94752.91;4998277;28;20305;-78
2023/04/21 00:37:42;;;;;;;15.10;8.97;;;;;;;9.75;89.59;94759.31;5001914;28;20222;-75
2023/04/21 00:40:08;;;;;;;14.73;8.77;;;;;;;9.71;89.54;94763.31;5020557;28;20667;-76
2023/04/21 00:42:34;;;;;;;14.63;8.73;;;;;;;9.61;90.50;94765.50;5004314;28;20229;-77
2023/04/21 00:44:59;;;;;;;15.17;9.07;;;;;;;9.63;89.64;94761.69;5001281;28;20257;-77
2023/04/21 00:47:25;;;;;;;14.83;8.93;;;;;;;9.66;89.49;94763.09;5024894;28;21087;-76
2023/04/21 00:49:51;;;;;;;15.47;9.20;;;;;;;9.63;89.54;94760.88;5001957;28;20603;-76
2023/04/21 00:52:16;;;;;;;21.67;11.27;;;;;;;9.45;90.80;94759.66;4997096;28;20237;-76
2023/04/21 00:54:42;;;;;;;20.93;10.73;;;;;;;9.42;90.95;94752.19;5032608;28;20221;-75
2023/04/21 00:57:08;;;;;;;19.57;10.80;;;;;;;9.40;91.83;94751.59;4996544;28;20624;-75
2023/04/21 00:59:33;;;;;;;22.17;11.53;;;;;;;9.44;90.99;94750.19;4998806;28;20246;-75
2023/04/21 01:01:59;;;;;;;23.57;11.83;;;;;;;9.49;90.69;94749.59;5001331;28;20239;-76
2023/04/21 01:04:27;;;;;;;22.37;12.40;;;;;;;9.64;91.10;94752.03;5009390;28;21008;-77
2023/04/21 01:06:52;;;;;;;24.00;12.47;;;;;;;9.71;89.41;94752.88;4984105;28;20221;-76
2023/04/21 01:09:18;;;;;;;27.63;12.50;;;;;;;9.66;89.38;94753.47;5000396;28;20226;-77
2023/04/21 01:12:01;;;;;;;22.23;12.40;;;;;;;9.56;89.45;94742.59;5024737;28;20226;-76
2023/04/21 01:14:26;;;;;;;21.57;11.80;;;;;;;9.65;89.00;94753.66;5015201;28;20308;-76
2023/04/21 01:16:52;;;;;;;26.40;12.27;;;;;;;9.58;90.56;94751.03;4984686;28;20312;-75
2023/04/21 01:19:17;;;;;;;21.90;11.57;;;;;;;9.50;90.22;94748.59;4995320;28;20222;-76
2023/04/21 01:21:43;;;;;;;21.43;12.13;;;;;;;9.45;91.13;94741.38;5000494;28;20226;-76
2023/04/21 01:24:08;;;;;;;21.87;11.83;;;;;;;9.31;91.15;94742.28;5012678;28;20849;-76
2023/04/21 01:26:34;;;;;;;22.50;11.83;;;;;;;9.32;92.06;94741.31;5008421;28;20239;-77
2023/04/21 01:29:00;;;;;;;21.50;11.90;;;;;;;9.13;91.88;94738.63;4996294;28;20222;-76
2023/04/21 01:31:26;;;;;;;23.30;12.03;;;;;;;9.04;92.59;94739.78;4999303;28;20259;-76
2023/04/21 01:33:51;;;;;;;27.47;13.47;;;;;;;8.94;92.73;94745.38;4981958;28;20238;-76
2023/04/21 01:36:17;;;;;;;24.10;12.60;;;;;;;8.89;93.10;94746.94;4982537;28;20807;-77
2023/04/21 01:38:42;;;;;;;23.70;11.77;;;;;;;8.98;92.41;94738.75;5028888;28;20228;-76
2023/04/21 01:41:08;;;;;;;21.73;12.00;;;;;;;9.08;91.81;94736.59;5001705;28;20237;-76
2023/04/21 01:43:33;;;;;;;20.93;11.57;;;;;;;9.01;91.69;94734.94;4999917;28;20241;-77
2023/04/21 01:45:59;;;;;;;22.53;11.50;;;;;;;9.03;91.26;94731.16;5021750;28;20242;-77
2023/04/21 01:48:24;;;;;;;24.27;12.13;;;;;;;9.18;91.04;94742.25;5007690;28;20750;-77
2023/04/21 01:50:50;;;;;;;19.63;11.50;;;;;;;9.21;90.71;94730.63;5031667;28;20654;-76
2023/04/21 01:53:15;;;;;;;25.27;11.83;;;;;;;9.08;91.19;94735.78;4999771;28;20229;-77
2023/04/21 01:55:50;;;;;;;22.70;11.20;;;;;;;9.15;90.99;94731.38;5023248;28;20249;-76
2023/04/21 01:58:15;;;;;;;26.60;11.53;;;;;;;9.33;90.58;94734.28;4994226;28;20237;-76
2023/04/21 02:00:41;;;;;;;24.20;11.67;;;;;;;9.09;90.76;94732.19;4977607;28;20727;-76
2023/04/21 02:03:06;;;;;;;24.67;11.23;;;;;;;8.90;91.94;94735.50;5017724;28;20885;-76
2023/04/21 02:05:32;;;;;;;19.13;11.20;;;;;;;8.91;91.23;94732.69;5001756;28;20258;-76
2023/04/21 02:07:57;;;;;;;22.13;11.07;;;;;;;8.74;92.04;94740.03;5005176;28;20275;-76
2023/04/21 02:10:23;;;;;;;20.70;11.37;;;;;;;8.84;92.49;94738.91;5014228;28;20249;-75
2023/04/21 02:12:48;;;;;;;18.23;10.43;;;;;;;8.86;92.39;94744.72;5023429;28;20255;-77
2023/04/21 02:15:14;;;;;;;21.27;11.20;;;;;;;8.88;92.72;94735.72;5016658;28;20230;-75
2023/04/21 02:17:41;;;;;;;21.60;11.80;;;;;;;8.98;90.75;94730.91;4998019;28;20233;-76
2023/04/21 02:20:07;;;;;;;21.80;11.03;;;;;;;8.94;91.41;94724.50;5003458;28;20230;-76
2023/04/21 02:22:33;;;;;;;19.63;10.43;;;;;;;8.82;91.71;94729.47;4999589;28;20927;-75
2023/04/21 02:24:58;;;;;;;20.57;11.17;;;;;;;8.79;92.42;94726.41;5001965;28;20233;-76
2023/04/21 02:27:24;;;;;;;20.00;10.90;;;;;;;8.64;93.17;94730.97;4998888;28;20229;-76
2023/04/21 02:29:50;;;;;;;19.87;11.07;;;;;;;8.74;92.81;94734.03;5023913;28;20746;-75
2023/04/21 02:32:15;;;;;;;22.00;11.17;;;;;;;8.44;93.85;94727.41;5006233;28;20237;-75
2023/04/21 02:34:41;;;;;;;20.53;11.27;;;;;;;8.87;93.69;94733.28;5005702;28;20230;-76
2023/04/21 02:37:07;;;;;;;18.23;10.97;;;;;;;8.74;93.24;94728.81;5020892;28;20249;-77
2023/04/21 02:39:32;;;;;;;18.70;10.90;;;;;;;8.87;92.92;94730.66;5001818;28;20311;-75
2023/04/21 02:41:58;;;;;;;24.10;11.63;;;;;;;9.15;93.35;94726.16;5002372;28;20236;-75
2023/04/21 02:44:23;;;;;;;21.27;11.40;;;;;;;9.13;93.01;94728.19;5004160;28;20650;-76
2023/04/21 02:46:49;;;;;;;20.37;11.50;;;;;;;9.23;92.48;94726.00;5009593;28;20945;-76
2023/04/21 02:49:14;;;;;;;22.30;11.77;;;;;;;9.05;93.01;94736.97;5010448;28;20299;-76
2023/04/21 02:51:40;;;;;;;23.37;11.63;;;;;;;8.71;94.42;94732.63;5010333;28;20229;-75
2023/04/21 02:54:05;;;;;;;22.83;11.53;;;;;;;8.75;94.52;94741.66;5035658;28;20264;-76
2023/04/21 02:56:33;;;;;;;21.57;11.00;;;;;;;8.85;94.47;94733.50;4969415;28;20275;-75
2023/04/21 02:58:59;;;;;;;20.53;11.00;;;;;;;8.91;93.99;94740.53;5016824;28;20225;-76
2023/04/21 03:01:24;;;;;;;21.83;10.87;;;;;;;8.95;93.13;94728.72;5007438;28;20241;-76
2023/04/21 03:03:50;;;;;;;18.73;10.40;;;;;;;9.03;93.20;94728.53;5017131;28;20248;-74
2023/04/21 03:06:15;;;;;;;23.03;11.17;;;;;;;9.05;93.40;94729.16;4992709;28;20655;-76
2023/04/21 03:08:41;;;;;;;18.40;10.67;;;;;;;9.04;93.35;94731.97;4981699;28;20880;-75
2023/04/21 03:11:06;;;;;;;20.07;10.43;;;;;;;9.03;92.96;94738.19;5004223;28;20459;-75
2023/04/21 03:13:32;;;;;;;19.53;10.87;;;;;;;9.02;92.97;94733.97;4999654;28;20226;-76
2023/04/21 03:15:57;;;;;;;19.50;10.40;;;;;;;9.13;92.28;94736.00;4998264;28;20292;-76
2023/04/21 03:18:23;;;;;;;25.53;11.33;;;;;;;8.98;93.40;94743.97;5001050;28;20233;-76
2023/04/21 03:20:48;;;;;;;23.30;11.17;;;;;;;9.06;93.69;94732.56;4996050;28;20233;-76
2023/04/21 03:23:14;;;;;;;20.97;11.67;;;;;;;9.11;94.26;94738.00;5009251;28;20245;-75
2023/04/21 03:25:40;;;;;;;22.20;11.50;;;;;;;9.13;94.67;94736.81;4971765;28;20374;-75
2023/04/21 03:28:08;;;;;;;23.53;11.77;;;;;;;9.19;93.22;94735.25;5022805;28;20226;-77
2023/04/21 03:30:34;;;;;;;23.57;11.17;;;;;;;9.12;94.99;94737.03;5005031;28;20242;-75
2023/04/21 03:32:59;;;;;;;21.20;11.90;;;;;;;9.17;94.30;94745.09;5014689;28;20322;-76
2023/04/21 03:35:25;;;;;;;24.10;12.70;;;;;;;9.18;94.47;94747.50;5015093;28;20613;-76
2023/04/21 03:37:51;;;;;;;27.03;12.17;;;;;;;9.25;94.56;94743.09;4983875;28;20323;-76
2023/04/21 03:40:16;;;;;;;22.90;11.50;;;;;;;9.37;94.08;94751.16;5024700;28;20748;-75
2023/04/21 03:42:42;;;;;;;24.33;12.10;;;;;;;9.33;94.75;94744.72;5007377;28;20218;-76
2023/04/21 03:45:08;;;;;;;21.93;11.13;;;;;;;9.46;92.87;94750.78;5001208;28;20238;-76
2023/04/21 03:47:34;;;;;;;19.60;11.17;;;;;;;9.47;91.61;94749.00;4975011;28;20716;-77
2023/04/21 03:50:00;;;;;;;21.53;11.43;;;;;;;9.67;92.11;94752.47;5011617;28;20214;-76
2023/04/21 03:52:25;;;;;;;19.67;10.80;;;;;;;9.66;90.15;94756.06;4980021;28;20678;-76
2023/04/21 03:54:51;;;;;;;22.40;11.50;;;;;;;9.78;90.19;94766.75;5009850;28;20251;-76
2023/04/21 03:57:16;;;;;;;21.80;10.50;;;;;;;9.80;90.34;94757.72;4992039;28;20340;-77
2023/04/21 03:59:42;;;;;;;19.37;10.40;;;;;;;10.07;88.28;94756.75;4985967;28;20221;-78
2023/04/21 04:02:07;;;;;;;22.20;10.43;;;;;;;10.21;86.89;94756.78;4997920;28;20240;-77
2023/04/21 04:04:36;;;;;;;21.00;10.57;;;;;;;10.16;87.28;94762.59;4991353;28;20667;-78
2023/04/21 04:07:01;;;;;;;23.90;10.80;;;;;;;10.00;89.16;94774.25;5015742;28;20232;-77
2023/04/21 04:09:27;;;;;;;19.83;9.80;;;;;;;10.14;87.16;94772.47;5026366;28;20230;-77
2023/04/21 04:11:52;;;;;;;20.40;10.33;;;;;;;10.32;87.17;94772.66;4989270;28;20240;-77
2023/04/21 04:14:18;;;;;;;19.03;10.50;;;;;;;10.35;85.69;94774.88;5006345;28;20249;-76
2023/04/21 04:16:46;;;;;;;16.63;10.20;;;;;;;10.48;86.18;94782.75;5015119;28;20233;-76
2023/04/21 04:19:12;;;;;;;19.67;10.20;;;;;;;10.66;84.60;94779.50;4991740;28;20639;-77
2023/04/21 04:21:38;;;;;;;18.17;10.13;;;;;;;10.72;85.02;94779.47;4991567;28;20233;-76
2023/04/21 04:24:04;;;;;;;18.07;9.37;;;;;;;10.84;83.26;94793.56;5012809;28;20326;-77
2023/04/21 04:26:29;;;;;;;20.63;9.93;;;;;;;10.91;82.26;94793.56;5008616;28;20228;-76
2023/04/21 04:28:55;;;;;;;15.60;9.43;;;;;;;11.02;81.62;94789.50;5002016;28;20230;-77
2023/04/21 04:31:24;;;;;;;17.37;9.70;;;;;;;11.08;81.90;94799.19;4987676;28;20657;-77
2023/04/21 04:33:50;;;;;;;15.60;9.43;;;;;;;11.13;80.55;94791.50;5000017;28;20302;-76
2023/04/21 04:36:16;;;;;;;16.03;9.67;;;;;;;11.16;80.75;94793.69;5018789;28;20237;-76
2023/04/21 04:38:42;;;;;;;16.60;9.17;;;;;;;11.32;80.18;94794.03;5001635;28;20222;-77
2023/04/21 04:41:16;;;;;;;16.67;9.43;;;;;;;11.32;79.69;94799.28;4969217;28;20243;-77
2023/04/21 04:44:03;;;;;;;16.10;9.30;;;;;;;11.35;79.55;94803.31;4993149;28;20226;-76
2023/04/21 04:46:32;;;;;;;17.80;9.00;;;;;;;11.34;79.60;94801.72;5002755;28;20267;-77
2023/04/21 04:49:12;;;;;;;15.53;9.37;;;;;;;11.41;79.18;94797.25;5009423;28;20240;-78
2023/04/21 04:51:55;;;;;;;16.70;9.37;;;;;;;11.52;79.80;94796.59;4994567;28;20337;-79
2023/04/21 04:54:24;;;;;;;16.37;9.60;;;;;;;11.63;78.84;94798.56;4983399;28;20253;-76
2023/04/21 04:56:49;;;;;;;34.13;14.27;;;;;;;11.41;82.83;94811.16;5015520;28;20225;-76
2023/04/21 04:59:29;;;;;;;31.13;13.77;;;;;;;11.18;85.73;94810.81;5031550;28;20249;-76
2023/04/21 05:01:56;;;;;;;29.97;13.87;;;;;;;11.20;83.54;94802.78;4981816;28;20313;-77
2023/04/21 05:04:32;;;;;;;32.60;14.47;;;;;;;11.37;82.16;94803.91;4976747;28;20280;-77
2023/04/21 05:06:57;;;;;;;30.80;14.50;;;;;;;11.41;84.05;94807.75;5005137;28;20221;-78
2023/04/21 05:09:23;;;;;;;29.07;13.43;;;;;;;11.38;81.68;94805.53;5009903;28;20230;-77
2023/04/21 05:11:51;;;;;;;28.00;13.90;;;;;;;11.68;82.85;94805.84;5012101;28;21089;-76
2023/04/21 05:14:22;;;;;;;28.17;13.70;;;;;;;11.52;82.32;94807.88;4987619;28;20236;-77
2023/04/21 05:16:50;;;;;;;31.27;14.47;;;;;;;11.54;81.47;94807.66;4994327;28;20234;-78
2023/04/21 05:19:16;;;;;;;26.20;14.30;;;;;;;11.70;81.45;94807.22;4991365;28;20773;-79
2023/04/21 05:21:42;;;;;;;27.87;14.07;;;;;;;11.65;81.66;94812.28;5013288;28;20230;-79
2023/04/21 05:24:08;;;;;;;27.77;13.60;;;;;;;11.68;83.32;94811.88;4993060;28;20237;-78
2023/04/21 05:26:33;;;;;;;30.57;14.17;;;;;;;11.72;82.09;94807.84;5030583;28;20230;-77
2023/04/21 05:28:59;;;;;;;27.80;14.67;;;;;;;11.79;83.09;94810.44;5004522;28;20233;-78
2023/04/21 05:31:25;;;;;;;34.63;15.47;;;;;;;11.60;81.54;94804.22;4996509;28;20819;-79
2023/04/21 05:33:50;;;;;;;30.40;13.30;;;;;;;12.79;77.19;94808.53;5013657;28;20229;-76
2023/04/21 05:36:16;;;;;;;27.17;13.60;;;;;;;13.55;75.57;94816.06;5005800;28;20268;-78
2023/04/21 05:38:41;;;;;;;25.70;12.63;;;;;;;13.27;75.75;94813.16;5000167;28;20790;-77
2023/04/21 05:41:12;;;;;;;19.73;10.77;;;;;;;13.32;73.43;94808.84;5019335;28;20711;-76
2023/04/21 05:43:38;;;;;;;19.07;9.67;;;;;;;13.37;72.98;94814.22;4983056;28;20238;-77
2023/04/21 05:46:09;;;;;;;18.13;9.40;;;;;;;13.54;71.64;94811.03;4997533;28;20577;-77
2023/04/21 05:48:35;;;;;;;15.20;9.07;;;;;;;13.79;70.78;94814.34;5010705;28;20237;-77
2023/04/21 05:51:10;;;;;;;19.90;9.50;;;;;;;13.92;70.25;94809.72;5011971;28;20240;-76
2023/04/21 05:53:39;;;;;;;15.93;9.40;;;;;;;13.68;70.87;94802.78;5027548;28;20222;-76
2023/04/21 05:56:05;;;;;;;18.20;9.57;;;;;;;13.98;70.23;94821.19;5004519;28;20232;-79
2023/04/21 05:58:32;;;;;;;14.30;9.10;;;;;;;14.17;69.37;94814.84;5004234;28;20221;-77
2023/04/21 06:00:58;;;;;;;18.50;9.90;;;;;;;14.10;69.75;94811.50;5028388;28;20235;-78
2023/04/21 06:03:31;;;;;;;16.77;9.40;;;;;;;14.24;69.51;94798.97;5009460;28;20238;-79
2023/04/21 06:05:58;;;;;;;15.20;9.00;;;;;;;14.39;69.14;94799.38;4985078;28;20230;-77
2023/04/21 06:08:29;;;;;;;17.70;9.10;;;;;;;14.62;68.02;94797.59;5035773;28;20252;-78
2023/04/21 06:10:54;;;;;;;15.67;9.13;;;;;;;14.53;67.98;94790.25;5008575;28;20233;-79
2023/04/21 06:13:20;;;;;;;15.03;8.90;;;;;;;14.48;68.71;94803.28;5021272;28;20279;-78
2023/04/21 06:15:51;;;;;;;16.83;8.53;;;;;;;14.40;68.25;94795.75;5035083;28;20819;-79
2023/04/21 06:18:22;;;;;;;16.90;9.00;;;;;;;14.38;68.67;94801.22;4990421;28;20692;-78
2023/04/21 06:20:52;;;;;;;15.20;8.80;;;;;;;14.54;68.58;94795.31;5038636;28;20315;-77
2023/04/21 06:23:17;;;;;;;15.70;8.80;;;;;;;14.40;69.35;94803.63;5006532;28;20237;-80
2023/04/21 06:25:43;;;;;;;15.17;9.03;;;;;;;14.40;68.73;94807.03;5017881;28;20243;-78
2023/04/21 06:28:08;;;;;;;14.60;8.87;;;;;;;14.55;69.38;94811.91;5032293;28;20324;-78
2023/04/21 06:30:34;;;;;;;15.60;9.10;;;;;;;14.61;69.01;94801.28;5014842;28;20279;-78
2023/04/21 06:33:00;;;;;;;18.63;8.70;;;;;;;14.80;68.63;94809.88;5002862;28;20284;-76
2023/04/21 06:35:25;;;;;;;16.57;8.33;;;;;;;15.01;67.50;94795.34;5021160;28;20222;-77
2023/04/21 06:37:51;;;;;;;14.93;8.77;;;;;;;15.02;67.52;94800.38;5007348;28;20347;-77
2023/04/21 06:40:17;;;;;;;12.83;8.27;;;;;;;15.24;66.34;94797.94;5035408;28;20240;-76
2023/04/21 06:42:42;;;;;;;15.10;8.37;;;;;;;15.37;66.82;94797.72;5026941;28;20237;-76
2023/04/21 06:45:09;;;;;;;14.90;8.60;;;;;;;15.12;68.02;94792.69;5034196;28;20234;-78
2023/04/21 06:47:35;;;;;;;14.53;8.43;;;;;;;14.67;68.94;94799.53;5026080;28;20236;-76
2023/04/21 06:50:00;;;;;;;15.67;8.73;;;;;;;14.54;69.04;94787.41;4981064;28;20912;-76
2023/04/21 06:52:26;;;;;;;14.67;8.20;;;;;;;14.79;68.66;94792.47;5028815;28;20236;-76
2023/04/21 06:54:54;;;;;;;15.10;8.50;;;;;;;14.90;68.50;94796.94;5018396;28;20320;-75
2023/04/21 06:57:20;;;;;;;14.30;8.07;;;;;;;15.19;68.01;94793.38;5015304;28;20307;-76
2023/04/21 06:59:49;;;;;;;13.93;8.43;;;;;;;15.27;66.64;94789.59;5015035;28;20226;-76
2023/04/21 07:02:15;;;;;;;13.50;8.33;;;;;;;15.32;67.17;94789.69;5017499;28;20225;-76
2023/04/21 07:04:40;;;;;;;17.80;8.70;;;;;;;15.10;68.19;94792.13;5002516;28;20869;-74
2023/04/21 07:07:06;;;;;;;18.77;8.83;;;;;;;15.31;67.54;94791.53;5036511;28;20629;-75
2023/04/21 07:09:32;;;;;;;14.47;7.93;;;;;;;15.41;67.47;94783.03;5036225;28;20233;-78
2023/04/21 07:11:59;;;;;;;15.03;8.60;;;;;;;15.63;66.75;94784.03;5017775;28;20237;-75
2023/04/21 07:14:25;;;;;;;20.37;8.40;;;;;;;15.82;66.03;94785.47;5021243;28;21069;-76
2023/04/21 07:16:54;;;;;;;12.93;7.17;;;;;;;15.94;64.98;94780.97;4994753;28;20226;-76
2023/04/21 07:19:19;;;;;;;13.67;7.93;;;;;;;15.94;65.14;94791.53;5002298;28;20225;-76
2023/04/21 07:21:45;;;;;;;13.23;7.23;;;;;;;16.35;64.64;94781.69;5034961;28;20276;-75
2023/04/21 07:24:10;;;;;;;13.43;7.27;;;;;;;16.39;63.47;94788.09;5033897;28;21618;-77
2023/04/21 07:26:36;;;;;;;11.60;7.40;;;;;;;16.40;63.65;94781.78;4986308;28;20230;-75
2023/04/21 07:29:01;;;;;;;13.03;7.20;;;;;;;16.17;64.50;94788.78;5008825;28;20308;-75
2023/04/21 07:31:27;;;;;;;10.83;6.57;;;;;;;16.23;63.52;94784.38;4995362;28;20238;-74
2023/04/21 07:33:52;;;;;;;14.20;6.70;;;;;;;16.13;64.63;94779.72;4998704;28;20234;-76
2023/04/21 07:36:18;;;;;;;13.33;7.10;;;;;;;16.33;64.02;94778.47;5015303;28;21018;-75
2023/04/21 07:38:43;;;;;;;13.20;7.13;;;;;;;16.61;63.74;94783.75;5002882;28;20238;-75
2023/04/21 07:41:10;;;;;;;12.30;7.63;;;;;;;16.57;63.92;94785.28;4994933;28;20234;-76
2023/04/21 07:43:35;;;;;;;15.10;7.20;;;;;;;16.15;63.80;94782.13;4994584;28;20608;-74
2023/04/21 07:46:01;;;;;;;12.60;7.23;;;;;;;15.52;65.91;94784.88;5006335;28;20226;-76
2023/04/21 07:48:26;;;;;;;11.27;7.03;;;;;;;15.61;65.37;94783.47;5005303;28;20240;-75
2023/04/21 07:50:52;;;;;;;13.80;7.27;;;;;;;15.53;64.90;94786.47;5014610;28;20226;-76
2023/04/21 07:53:20;;;;;;;10.80;6.67;;;;;;;15.92;64.21;94782.22;5000234;28;20286;-75
2023/04/21 07:55:46;;;;;;;13.97;7.20;;;;;;;16.54;62.99;94788.38;5008094;28;20610;-76
2023/04/21 07:58:12;;;;;;;12.40;6.40;;;;;;;17.06;61.89;94776.50;5022212;28;20242;-75
2023/04/21 08:00:46;;;;;;;14.80;7.50;;;;;;;16.98;62.12;94782.19;5022630;28;20578;-77
2023/04/21 08:03:11;;;;;;;11.10;6.43;;;;;;;16.76;62.01;94787.44;5022243;28;20246;-75
2023/04/21 08:05:37;;;;;;;11.77;7.17;;;;;;;16.62;62.86;94782.72;5015051;28;20234;-75
2023/04/21 08:08:02;;;;;;;11.67;6.40;;;;;;;16.56;62.26;94786.28;5013264;28;20227;-75
2023/04/21 08:10:28;;;;;;;12.07;6.30;;;;;;;16.78;62.11;94779.25;5013663;28;20230;-76
2023/04/21 08:12:54;;;;;;;10.50;6.07;;;;;;;17.00;60.94;94789.91;5021783;28;20227;-76
2023/04/21 08:15:23;;;;;;;11.67;6.50;;;;;;;17.28;60.43;94782.66;5013934;28;20259;-78
2023/04/21 08:17:48;;;;;;;11.17;6.47;;;;;;;17.08;61.34;94781.53;5005692;28;20336;-75
2023/04/21 08:20:14;;;;;;;17.53;6.70;;;;;;;17.90;59.53;94775.25;5012318;28;20226;-77
2023/04/21 08:22:39;;;;;;;11.50;6.50;;;;;;;18.54;57.61;94773.53;5014864;28;20219;-80
2023/04/21 08:25:05;;;;;;;14.57;6.77;;;;;;;18.16;56.83;94789.56;4998772;28;20222;-77
2023/04/21 08:27:31;;;;;;;13.27;6.60;;;;;;;17.58;58.21;94776.97;5008693;28;20234;-75
2023/04/21 08:29:56;;;;;;;11.13;6.27;;;;;;;17.77;58.16;94786.19;5012921;28;20230;-75
2023/04/21 08:32:23;;;;;;;10.57;6.00;;;;;;;17.92;57.43;94777.63;5024164;28;20613;-75
2023/04/21 08:34:52;;;;;;;10.87;5.60;;;;;;;18.25;56.09;94781.94;5012502;28;20245;-75
2023/04/21 08:37:18;;;;;;;10.43;5.97;;;;;;;17.88;57.72;94789.78;5034266;28;20230;-76
2023/04/21 08:39:44;;;;;;;10.23;5.83;;;;;;;17.70;57.08;94787.44;5015728;28;20284;-76
2023/04/21 08:42:10;;;;;;;15.83;6.27;;;;;;;18.04;56.08;94765.06;4999450;28;20283;-77
2023/04/21 08:44:36;;;;;;;11.17;5.50;;;;;;;18.15;56.49;94772.06;5025495;28;20897;-77
2023/04/21 08:47:01;;;;;;;11.37;6.23;;;;;;;18.18;55.58;94767.06;5031966;28;20214;-76
2023/04/21 08:49:29;;;;;;;10.77;5.80;;;;;;;18.47;55.91;94772.94;5015018;28;20993;-77
2023/04/21 08:51:55;;;;;;;11.17;6.30;;;;;;;18.22;55.71;94767.38;5029751;28;20249;-77
2023/04/21 08:54:20;;;;;;;11.57;5.97;;;;;;;17.79;57.52;94772.72;5015517;28;20919;-77
2023/04/21 08:56:49;;;;;;;9.30;5.70;;;;;;;18.32;55.29;94759.50;5032999;28;20230;-77
2023/04/21 08:59:15;;;;;;;8.30;5.67;;;;;;;18.47;55.58;94764.97;5002428;28;20297;-76
2023/04/21 09:02:15;;;;;;;9.90;6.10;;;;;;;18.34;55.62;94759.28;5033206;28;20607;-75
2023/04/21 09:04:42;;;;;;;12.50;6.10;;;;;;;18.50;55.66;94763.69;5033681;28;20234;-77
2023/04/21 09:07:07;;;;;;;12.00;5.80;;;;;;;18.90;54.36;94756.03;5032924;28;20627;-75
2023/04/21 09:09:53;;;;;;;10.13;5.53;;;;;;;18.89;53.37;94757.09;5008473;28;20236;-75
2023/04/21 09:12:19;;;;;;;9.90;6.10;;;;;;;18.55;53.80;94761.06;5031385;28;20257;-77
2023/04/21 09:14:45;;;;;;;14.60;5.60;;;;;;;18.92;52.84;94758.44;4999997;28;20236;-76
2023/04/21 09:17:10;;;;;;;11.47;5.13;;;;;;;18.29;54.02;94749.44;5001838;28;20292;-78
2023/04/21 09:19:36;;;;;;;12.37;5.60;;;;;;;17.91;55.08;94749.56;5014938;28;20234;-76
2023/04/21 09:22:01;;;;;;;10.10;5.37;;;;;;;17.92;55.94;94751.16;5001996;28;20896;-76
2023/04/21 09:24:27;;;;;;;9.63;5.23;;;;;;;17.68;54.95;94750.63;4997505;28;20256;-75
2023/04/21 09:26:52;;;;;;;9.93;5.30;;;;;;;17.52;55.73;94737.47;5014991;28;20719;-76
2023/04/21 09:29:22;;;;;;;9.63;5.30;;;;;;;17.30;56.13;94737.41;4998409;28;20364;-75
2023/04/21 09:31:48;;;;;;;9.40;5.20;;;;;;;17.30;55.71;94732.94;4998687;28;20229;-76
2023/04/21 09:34:34;;;;;;;10.17;4.90;;;;;;;17.78;53.47;94744.66;4983479;28;20325;-77
2023/04/21 09:37:03;;;;;;;7.97;4.90;;;;;;;17.93;52.74;94737.69;4991450;28;20653;-74
2023/04/21 09:39:30;;;;;;;10.80;5.00;;;;;;;18.17;52.42;94738.19;5008665;28;20233;-75
2023/04/21 09:41:57;;;;;;;8.10;4.50;;;;;;;18.53;50.32;94744.63;5005440;28;20233;-75
2023/04/21 09:44:23;;;;;;;9.87;4.97;;;;;;;18.42;50.44;94732.28;4998812;28;20789;-76
2023/04/21 09:46:49;;;;;;;8.23;4.80;;;;;;;18.32;50.73;94727.72;5007022;28;20226;-74
2023/04/21 09:49:18;;;;;;;11.43;4.97;;;;;;;18.18;50.78;94716.72;5006789;28;20229;-76
2023/04/21 09:51:44;;;;;;;11.27;4.87;;;;;;;18.24;50.72;94709.63;4998118;28;20221;-75
2023/04/21 09:54:15;;;;;;;10.37;5.17;;;;;;;18.64;51.39;94723.25;4994761;28;20233;-74
2023/04/21 09:56:41;;;;;;;8.83;5.13;;;;;;;18.40;51.23;94724.59;4986268;28;20533;-75
2023/04/21 09:59:06;;;;;;;7.47;4.97;;;;;;;18.28;51.02;94720.50;5006824;28;20711;-74
2023/04/21 10:01:34;;;;;;;11.07;5.80;;;;;;;17.98;53.03;94729.75;4997136;28;20240;-75
2023/04/21 10:03:59;;;;;;;11.13;5.30;;;;;;;18.02;52.62;94708.88;4999049;28;20237;-75
2023/04/21 10:06:25;;;;;;;11.60;5.03;;;;;;;17.97;52.36;94716.78;4995229;28;20256;-76
2023/04/21 10:08:50;;;;;;;14.10;5.17;;;;;;;17.88;51.82;94720.94;5016738;28;20229;-75
2023/04/21 10:11:16;;;;;;;10.90;5.00;;;;;;;17.82;50.53;94714.78;5023841;28;20221;-75
2023/04/21 10:13:41;;;;;;;10.10;5.20;;;;;;;18.33;51.43;94716.06;5013766;28;20253;-74
2023/04/21 10:16:08;;;;;;;10.87;5.83;;;;;;;18.16;51.96;94715.38;4995278;28;20237;-76
2023/04/21 10:18:37;;;;;;;10.40;5.60;;;;;;;17.82;53.52;94711.31;5000128;28;20734;-74
2023/04/21 10:21:02;;;;;;;10.93;5.80;;;;;;;17.36;54.95;94710.78;4996154;28;20237;-74
2023/04/21 10:23:41;;;;;;;10.83;5.97;;;;;;;17.85;54.02;94724.06;5028019;28;20238;-75
2023/04/21 10:26:16;;;;;;;10.60;5.63;;;;;;;18.19;55.35;94709.59;5003219;28;20316;-76
2023/04/21 10:29:00;;;;;;;9.77;5.80;;;;;;;17.93;54.29;94713.84;5014755;28;20249;-76
2023/04/21 10:31:30;;;;;;;12.03;5.63;;;;;;;17.90;54.78;94714.34;5018928;28;20265;-74
2023/04/21 10:34:04;;;;;;;12.33;5.90;;;;;;;17.99;53.92;94704.91;5018745;28;20328;-76
2023/04/21 10:36:30;;;;;;;7.77;5.33;;;;;;;18.09;54.12;94712.13;5008585;28;20233;-77
2023/04/21 10:38:58;;;;;;;9.03;5.80;;;;;;;17.82;54.29;94703.38;4978008;28;20249;-75
2023/04/21 10:41:31;;;;;;;10.30;6.30;;;;;;;18.62;54.41;94709.44;4984065;28;20225;-77
2023/04/21 10:43:59;;;;;;;9.20;6.00;;;;;;;19.11;53.20;94706.56;5006921;28;20242;-75
2023/04/21 10:46:38;;;;;;;9.57;5.47;;;;;;;19.09;52.05;94698.88;4997685;28;20237;-75
2023/04/21 10:49:05;;;;;;;8.50;4.97;;;;;;;18.68;49.17;94707.63;4991466;28;20234;-75
2023/04/21 10:51:33;;;;;;;11.73;5.37;;;;;;;18.68;49.55;94713.72;5013227;28;20262;-75
2023/04/21 10:53:58;;;;;;;9.67;5.17;;;;;;;19.06;49.36;94702.03;5001746;28;20241;-76
2023/04/21 10:56:24;;;;;;;7.13;4.70;;;;;;;18.93;47.72;94702.50;5000842;28;20600;-77
2023/04/21 10:58:50;;;;;;;8.37;4.57;;;;;;;19.71;48.09;94700.75;4999731;28;20249;-75
2023/04/21 11:01:16;;;;;;;8.07;4.50;;;;;;;20.24;44.44;94702.22;4984022;28;20731;-74
2023/04/21 11:03:41;;;;;;;7.63;4.30;;;;;;;19.95;42.81;94700.03;5001884;28;20227;-76
2023/04/21 11:06:14;;;;;;;8.00;4.60;;;;;;;19.96;43.04;94698.16;5000087;28;20391;-75
2023/04/21 11:08:56;;;;;;;8.77;4.40;;;;;;;19.64;44.81;94700.19;5012906;28;20320;-75
2023/04/21 11:11:25;;;;;;;7.90;4.90;;;;;;;19.34;46.78;94714.94;5006641;28;20234;-75
2023/04/21 11:13:51;;;;;;;7.27;5.13;;;;;;;18.46;51.69;94704.28;4997015;28;20242;-75
2023/04/21 11:16:17;;;;;;;7.10;5.00;;;;;;;18.39;53.47;94707.09;4989892;28;20612;-77
2023/04/21 11:18:43;;;;;;;7.63;5.43;;;;;;;18.08;55.16;94697.28;5003595;28;20223;-77
2023/04/21 11:21:23;;;;;;;10.00;5.30;;;;;;;18.65;54.33;94687.72;5024190;28;20238;-77
2023/04/21 11:23:52;;;;;;;9.30;5.80;;;;;;;18.74;53.84;94685.41;5022029;28;20238;-77
2023/04/21 11:26:19;;;;;;;12.00;6.00;;;;;;;19.10;53.96;94686.41;5016113;28;20297;-78